Terminal Aerodrome Forecast
Issued by NWS Pocatello, ID

Home | Current Version | Previous Version | Text Only | Print | Product List | Glossary On
Versions: 1 2 3 4 5 6 7 8 9 10 11 12 13
000
FTUS45 KPIH 301722
TAFBYI
TAF
KBYI 301722Z 3018/0118 28011KT P6SM VCSH SCT020 OVC040
     FM302000 29012KT P6SM -SHRA VCTS BKN050CB OVC100
     FM010200 VRB06KT P6SM VCSH OVC050
     FM010800 VRB06KT P6SM SCT100
     FM011500 07011KT P6SM SKC=

USA.gov is the U.S. government's official web portal to all federal, state and local government web resources and services.